Terminal Aerodrome Forecast
Issued by NWS Wichita, KS

Home | Current Version | Previous Version | Graphics & Text | Print | Product List | Glossary On
Versions: 1 2 3 4 5 6 7 8 9 10 11 12 13 14 15 16 17
832
FTUS43 KICT 231121
TAFICT
TAF
KICT 231121Z 2312/2412 16009KT P6SM SKC
     FM231700 18012G24KT P6SM SCT250
     FM240100 16012KT P6SM SCT080 BKN250
     FM240700 16008KT P6SM VCTS BKN060CB=

USA.gov is the U.S. government's official web portal to all federal, state and local government web resources and services.